createdAt,value
2019-03-03T00:01:51.832Z,100251.07
2019-03-03T00:04:21.165Z,100252.41
2019-03-03T00:06:51.165Z,100250.14
2019-03-03T00:09:21.121Z,100244.08
2019-03-03T00:11:50.658Z,100237.57
2019-03-03T00:14:20.717Z,100237.03
2019-03-03T00:16:50.256Z,100234.99
2019-03-03T00:19:19.387Z,100233.99
2019-03-03T00:21:48.620Z,100227.92
2019-03-03T00:24:18.032Z,100229.56
2019-03-03T00:26:47.382Z,100215.02
2019-03-03T00:29:18.745Z,100219.48
2019-03-03T00:31:47.894Z,100217.91
2019-03-03T00:34:16.996Z,100218.00
2019-03-03T00:37:16.969Z,100212.34
2019-03-03T00:40:11.102Z,100211.94
2019-03-03T00:42:52.597Z,100223.06
2019-03-03T00:45:44.063Z,100216.66
2019-03-03T00:48:29.079Z,100229.27
2019-03-03T00:51:16.261Z,100228.06
2019-03-03T00:54:19.598Z,100218.64
2019-03-03T00:57:01.177Z,100221.79
2019-03-03T00:59:47.933Z,100225.81
2019-03-03T01:02:33.945Z,100234.40
2019-03-03T01:05:14.101Z,100235.44
2019-03-03T01:07:54.036Z,100232.22
2019-03-03T01:10:51.214Z,100237.28
2019-03-03T01:13:38.176Z,100236.67
2019-03-03T01:16:23.626Z,100227.58
2019-03-03T01:19:01.255Z,100229.77
2019-03-03T01:21:38.598Z,100231.30
2019-03-03T01:24:29.797Z,100231.61
2019-03-03T01:26:58.890Z,100234.50
2019-03-03T01:29:28.012Z,100231.70
2019-03-03T01:31:57.082Z,100234.09
2019-03-03T01:34:26.265Z,100232.04
2019-03-03T01:36:55.449Z,100231.94
2019-03-03T01:39:24.656Z,100229.86
2019-03-03T01:41:54.016Z,100226.77
2019-03-03T01:44:23.221Z,100223.48
2019-03-03T01:46:52.552Z,100221.61
2019-03-03T01:49:21.692Z,100218.11
2019-03-03T01:51:50.773Z,100216.55
2019-03-03T01:54:20.050Z,100215.61
2019-03-03T01:56:49.339Z,100209.11
2019-03-03T01:59:18.709Z,100214.58
2019-03-03T02:01:47.787Z,100210.02
2019-03-03T02:04:16.900Z,100202.87
2019-03-03T02:06:46.065Z,100208.55
2019-03-03T02:09:15.386Z,100214.02
2019-03-03T02:11:44.670Z,100211.05
2019-03-03T02:14:14.167Z,100209.61
2019-03-03T02:16:43.247Z,100208.70
2019-03-03T02:19:12.346Z,100201.56
2019-03-03T02:21:41.422Z,100202.90
2019-03-03T02:24:10.847Z,100193.31
2019-03-03T02:26:39.902Z,100194.05
2019-03-03T02:29:09.182Z,100188.14
2019-03-03T02:31:38.329Z,100187.95
2019-03-03T02:34:07.536Z,100184.34
2019-03-03T02:36:36.834Z,100172.80
2019-03-03T02:39:14.079Z,100165.27
2019-03-03T02:41:43.130Z,100158.33
2019-03-03T02:44:12.466Z,100155.64
2019-03-03T02:46:41.506Z,100156.15
2019-03-03T02:49:11.016Z,100151.31
2019-03-03T02:51:41.996Z,100154.81
2019-03-03T02:54:11.418Z,100153.48
2019-03-03T02:56:40.602Z,100146.77
2019-03-03T02:59:09.753Z,100151.50
2019-03-03T03:01:42.638Z,100154.52
2019-03-03T03:04:12.062Z,100151.93
2019-03-03T03:06:49.766Z,100152.64
2019-03-03T03:09:24.479Z,100154.81
2019-03-03T03:12:27.863Z,100153.66
2019-03-03T03:15:12.202Z,100148.09
2019-03-03T03:17:59.314Z,100141.72
2019-03-03T03:20:50.150Z,100144.06
2019-03-03T03:23:24.693Z,100132.92
2019-03-03T03:26:03.722Z,100139.21
2019-03-03T03:28:50.724Z,100130.76
2019-03-03T03:31:36.022Z,100128.79
2019-03-03T03:34:10.505Z,100131.45
2019-03-03T03:37:07.835Z,100120.52
2019-03-03T03:40:04.887Z,100124.11
2019-03-03T03:42:51.731Z,100119.59
2019-03-03T03:45:39.899Z,100119.36
2019-03-03T03:48:40.433Z,100117.41
2019-03-03T03:51:26.727Z,100111.02
2019-03-03T03:54:09.565Z,100106.48
2019-03-03T03:57:03.678Z,100098.21
2019-03-03T03:59:50.666Z,100094.06
2019-03-03T04:02:44.703Z,100098.52
2019-03-03T04:05:26.023Z,100101.00
2019-03-03T04:08:15.453Z,100113.46
2019-03-03T04:11:02.453Z,100108.70
2019-03-03T04:14:05.911Z,100108.84
2019-03-03T04:16:56.673Z,100109.54
2019-03-03T04:19:54.365Z,100100.36
2019-03-03T04:22:37.251Z,100100.77
2019-03-03T04:25:14.512Z,100099.13
2019-03-03T04:27:50.966Z,100103.05
2019-03-03T04:30:37.141Z,100108.20
2019-03-03T04:33:24.790Z,100109.04
2019-03-03T04:36:31.161Z,100104.41
2019-03-03T04:39:17.913Z,100108.88
2019-03-03T04:41:58.900Z,100111.53
2019-03-03T04:44:44.511Z,100110.42
2019-03-03T04:47:38.519Z,100115.38
2019-03-03T04:50:22.046Z,100105.48
2019-03-03T04:53:10.269Z,100107.45
2019-03-03T04:56:04.379Z,100111.14
2019-03-03T04:58:51.093Z,100102.08
2019-03-03T05:01:34.996Z,100103.44
2019-03-03T05:04:25.932Z,100100.73
2019-03-03T05:07:01.486Z,100101.34
2019-03-03T05:09:52.483Z,100092.80
2019-03-03T05:12:39.747Z,100100.64
2019-03-03T05:15:32.262Z,100098.78
2019-03-03T05:18:13.316Z,100099.59
2019-03-03T05:20:47.049Z,100090.02
2019-03-03T05:23:16.089Z,100095.59
2019-03-03T05:25:45.130Z,100096.61
2019-03-03T05:28:14.426Z,100099.20
2019-03-03T05:30:45.354Z,100090.23
2019-03-03T05:33:14.435Z,100093.22
2019-03-03T05:35:43.859Z,100089.70
2019-03-03T05:38:12.934Z,100092.41
2019-03-03T05:40:42.121Z,100092.48
2019-03-03T05:43:11.462Z,100102.39
2019-03-03T05:45:40.547Z,100101.34
2019-03-03T05:48:09.732Z,100113.33
2019-03-03T05:50:39.053Z,100112.20
2019-03-03T05:53:08.174Z,100111.56
2019-03-03T05:55:37.442Z,100115.07
2019-03-03T05:58:06.640Z,100103.81
2019-03-03T06:00:35.745Z,100099.91
2019-03-03T06:03:05.144Z,100091.24
2019-03-03T06:05:34.374Z,100101.12
2019-03-03T06:08:03.544Z,100103.19
2019-03-03T06:10:32.775Z,100098.11
2019-03-03T06:13:01.874Z,100100.69
2019-03-03T06:15:34.123Z,100104.95
2019-03-03T06:18:03.424Z,100100.36
2019-03-03T06:20:32.669Z,100093.89
2019-03-03T06:23:01.866Z,100093.55
2019-03-03T06:25:31.090Z,100093.16
2019-03-03T06:28:00.273Z,100090.67
2019-03-03T06:30:29.528Z,100094.49
2019-03-03T06:32:58.827Z,100088.83
2019-03-03T06:35:28.251Z,100096.97
2019-03-03T06:37:57.331Z,100090.98
2019-03-03T06:40:26.374Z,100091.18
2019-03-03T06:42:55.617Z,100084.18
2019-03-03T06:45:24.744Z,100077.37
2019-03-03T06:47:54.074Z,100075.09
2019-03-03T06:50:23.354Z,100077.25
2019-03-03T06:52:52.471Z,100071.35
2019-03-03T06:55:21.757Z,100069.91
2019-03-03T06:57:50.971Z,100075.50
2019-03-03T07:00:20.259Z,100075.30
2019-03-03T07:02:49.656Z,100072.11
2019-03-03T07:05:18.698Z,100073.88
2019-03-03T07:07:47.833Z,100076.06
2019-03-03T07:10:17.042Z,100070.47
2019-03-03T07:12:46.111Z,100075.83
2019-03-03T07:15:16.442Z,100075.13
2019-03-03T07:17:45.806Z,100081.42
2019-03-03T07:20:15.049Z,100084.63
2019-03-03T07:22:44.444Z,100081.95
2019-03-03T07:25:14.270Z,100086.27
2019-03-03T07:27:43.518Z,100100.72
2019-03-03T07:30:14.109Z,100090.09
2019-03-03T07:32:47.737Z,100087.41
2019-03-03T07:35:17.192Z,100097.73
2019-03-03T07:37:46.473Z,100094.01
2019-03-03T07:40:15.644Z,100088.34
2019-03-03T07:42:44.700Z,100081.94
2019-03-03T07:45:13.972Z,100082.27
2019-03-03T07:47:43.123Z,100075.25
2019-03-03T07:50:12.268Z,100070.70
2019-03-03T07:52:41.620Z,100073.29
2019-03-03T07:55:10.950Z,100072.58
2019-03-03T07:57:40.273Z,100071.22
2019-03-03T08:00:10.563Z,100075.58
2019-03-03T08:02:40.200Z,100075.16
2019-03-03T08:05:09.293Z,100061.13
2019-03-03T08:07:38.365Z,100084.42
2019-03-03T08:10:08.146Z,100078.64
2019-03-03T08:12:37.403Z,100073.59
2019-03-03T08:15:06.601Z,100064.92
2019-03-03T08:17:35.925Z,100067.07
2019-03-03T08:20:06.401Z,100060.69
2019-03-03T08:22:35.510Z,100066.06
2019-03-03T08:25:04.627Z,100065.02
2019-03-03T08:27:33.742Z,100061.41
2019-03-03T08:30:02.847Z,100063.17
2019-03-03T08:32:32.099Z,100062.12
2019-03-03T08:35:01.237Z,100072.95
2019-03-03T08:37:30.650Z,100073.67
2019-03-03T08:39:59.766Z,100063.77
2019-03-03T08:42:43.152Z,100069.43
2019-03-03T08:45:37.074Z,100064.98
2019-03-03T08:48:16.412Z,100085.30
2019-03-03T08:50:53.323Z,100078.50
2019-03-03T08:53:38.207Z,100067.84
2019-03-03T08:56:15.976Z,100080.23
2019-03-03T08:59:00.744Z,100086.85
2019-03-03T09:01:51.856Z,100080.73
2019-03-03T09:04:35.327Z,100083.21
2019-03-03T09:07:26.352Z,100074.94
2019-03-03T09:10:25.351Z,100084.97
2019-03-03T09:13:04.476Z,100085.69
2019-03-03T09:15:59.021Z,100082.58
2019-03-03T09:18:59.494Z,100080.63
2019-03-03T09:21:46.387Z,100088.14
2019-03-03T09:24:27.145Z,100093.61
2019-03-03T09:27:17.447Z,100094.94
2019-03-03T09:30:11.453Z,100085.11
2019-03-03T09:32:58.218Z,100080.31
2019-03-03T09:35:45.293Z,100087.16
2019-03-03T09:38:22.312Z,100080.82
2019-03-03T09:41:01.199Z,100075.64
2019-03-03T09:43:52.288Z,100081.02
2019-03-03T09:46:58.563Z,100077.14
2019-03-03T09:49:58.988Z,100076.30
2019-03-03T09:52:45.660Z,100078.61
2019-03-03T09:55:21.386Z,100076.28
2019-03-03T09:58:05.297Z,100076.59
2019-03-03T10:00:50.189Z,100075.33
2019-03-03T10:03:37.857Z,100069.52
2019-03-03T10:06:28.696Z,100074.60
2019-03-03T10:09:13.213Z,100073.13
2019-03-03T10:12:13.635Z,100084.75
2019-03-03T10:14:51.823Z,100072.73
2019-03-03T10:17:48.831Z,100073.65
2019-03-03T10:20:36.154Z,100070.82
2019-03-03T10:23:29.221Z,100071.02
2019-03-03T10:26:10.906Z,100068.48
2019-03-03T10:29:02.248Z,100069.96
2019-03-03T10:32:01.503Z,100060.41
2019-03-03T10:34:56.311Z,100043.14
2019-03-03T10:37:44.348Z,100057.23
2019-03-03T10:40:29.422Z,100049.59
2019-03-03T10:43:08.470Z,100038.94
2019-03-03T10:45:45.069Z,100042.44
2019-03-03T10:48:38.247Z,100041.43
2019-03-03T10:51:29.296Z,100048.53
2019-03-03T10:54:25.977Z,100029.66
2019-03-03T10:57:20.021Z,100041.55
2019-03-03T11:00:06.839Z,100040.20
2019-03-03T11:02:46.437Z,100019.17
2019-03-03T11:05:37.727Z,100027.64
2019-03-03T11:08:44.202Z,100029.66
2019-03-03T11:11:30.858Z,100016.61
2019-03-03T11:14:15.327Z,100015.81
2019-03-03T11:17:03.588Z,100006.41
2019-03-03T11:19:43.226Z,100001.80
2019-03-03T11:22:21.166Z,100000.92
2019-03-03T11:25:09.995Z,100007.93
2019-03-03T11:27:52.788Z,100015.56
2019-03-03T11:30:44.074Z,100009.83
2019-03-03T11:33:38.223Z,100011.25
2019-03-03T11:36:25.343Z,100004.95
2019-03-03T11:39:04.018Z,100001.94
2019-03-03T11:41:44.757Z,100003.16
2019-03-03T11:44:25.073Z,99998.61
2019-03-03T11:47:03.605Z,99992.32
2019-03-03T11:49:49.678Z,99990.03
2019-03-03T11:52:37.685Z,99999.15
2019-03-03T11:55:19.964Z,99989.28
2019-03-03T11:57:57.453Z,99990.19
2019-03-03T12:00:44.476Z,99990.05
2019-03-03T12:03:32.209Z,99979.50
2019-03-03T12:06:26.582Z,99977.03
2019-03-03T12:09:14.771Z,99978.73
2019-03-03T12:12:11.952Z,99974.59
2019-03-03T12:15:15.103Z,99963.92
2019-03-03T12:18:03.143Z,99956.36
2019-03-03T12:20:49.699Z,99952.77
2019-03-03T12:23:25.583Z,99950.02
2019-03-03T12:26:07.233Z,99936.84
2019-03-03T12:29:01.560Z,99943.13
2019-03-03T12:31:40.126Z,99931.75
2019-03-03T12:34:19.729Z,99940.56
2019-03-03T12:37:07.258Z,99924.73
2019-03-03T12:39:55.625Z,99912.61
2019-03-03T12:42:46.921Z,99916.87
2019-03-03T12:45:26.114Z,99912.16
2019-03-03T12:48:03.350Z,99909.02
2019-03-03T12:50:57.631Z,99915.81
2019-03-03T12:53:43.426Z,99907.58
2019-03-03T12:56:30.034Z,99899.81
2019-03-03T12:59:24.491Z,99898.14
2019-03-03T13:02:22.119Z,99898.92
2019-03-03T13:05:06.602Z,99899.94
2019-03-03T13:07:50.032Z,99886.80
2019-03-03T13:10:47.454Z,99880.59
2019-03-03T13:13:34.213Z,99866.50
2019-03-03T13:16:22.119Z,99868.84
2019-03-03T13:19:16.289Z,99862.91
2019-03-03T13:22:04.650Z,99844.22
2019-03-03T13:25:01.883Z,99854.77
2019-03-03T13:27:52.783Z,99848.07
2019-03-03T13:30:30.346Z,99837.41
2019-03-03T13:33:26.115Z,99842.11
2019-03-03T13:36:19.461Z,99847.84
2019-03-03T13:39:06.569Z,99838.64
2019-03-03T13:41:53.331Z,99821.42
2019-03-03T13:44:22.445Z,99827.92
2019-03-03T13:46:51.649Z,99828.08
2019-03-03T13:49:21.927Z,99823.72
2019-03-03T13:51:51.319Z,99820.63
2019-03-03T13:54:20.424Z,99810.78
2019-03-03T13:56:49.718Z,99797.13
2019-03-03T13:59:18.886Z,99799.80
2019-03-03T14:01:48.397Z,99792.55
2019-03-03T14:04:17.521Z,99787.05
2019-03-03T14:06:46.723Z,99786.70
2019-03-03T14:09:15.903Z,99786.10
2019-03-03T14:11:45.228Z,99763.66
2019-03-03T14:14:14.418Z,99770.63
2019-03-03T14:16:43.651Z,99763.68
2019-03-03T14:19:12.748Z,99764.09
2019-03-03T14:21:41.975Z,99760.82
2019-03-03T14:24:11.088Z,99762.64
2019-03-03T14:26:40.417Z,99762.24
2019-03-03T14:29:09.759Z,99755.50
2019-03-03T14:31:39.013Z,99767.56
2019-03-03T14:34:08.102Z,99755.19
2019-03-03T14:36:37.207Z,99753.04
2019-03-03T14:39:07.695Z,99754.91
2019-03-03T14:41:36.982Z,99746.06
2019-03-03T14:44:06.494Z,99747.48
2019-03-03T14:46:35.980Z,99751.29
2019-03-03T14:49:05.259Z,99749.45
2019-03-03T14:51:34.447Z,99741.91
2019-03-03T14:54:04.035Z,99745.36
2019-03-03T14:56:33.174Z,99746.89
2019-03-03T14:59:02.238Z,99733.83
2019-03-03T15:01:34.792Z,99731.94
2019-03-03T15:04:04.283Z,99713.53
2019-03-03T15:06:33.936Z,99720.27
2019-03-03T15:09:04.695Z,99671.41
2019-03-03T15:11:34.064Z,99705.16
2019-03-03T15:14:06.350Z,99708.43
2019-03-03T15:16:35.613Z,99716.65
2019-03-03T15:19:04.800Z,99709.63
2019-03-03T15:21:33.919Z,99707.03
2019-03-03T15:24:03.697Z,99705.45
2019-03-03T15:26:33.077Z,99703.77
2019-03-03T15:29:02.499Z,99707.22
2019-03-03T15:31:37.626Z,99700.11
2019-03-03T15:34:02.989Z,99697.13
2019-03-03T15:36:32.385Z,99701.83
2019-03-03T15:39:01.645Z,99697.78
2019-03-03T15:41:33.785Z,99688.17
2019-03-03T15:44:03.201Z,99685.94
2019-03-03T15:46:32.870Z,99685.02
2019-03-03T15:49:02.090Z,99680.73
2019-03-03T15:51:31.272Z,99681.38
2019-03-03T15:54:04.274Z,99683.30
2019-03-03T15:56:37.010Z,99675.17
2019-03-03T15:59:06.524Z,99669.91
2019-03-03T16:01:36.074Z,99663.45
2019-03-03T16:04:07.008Z,99657.60
2019-03-03T16:06:37.139Z,99649.98
2019-03-03T16:09:10.862Z,99645.77
2019-03-03T16:11:40.040Z,99642.47
2019-03-03T16:14:09.804Z,99631.83
2019-03-03T16:16:38.950Z,99610.33
2019-03-03T16:19:08.243Z,99635.41
2019-03-03T16:21:38.273Z,99618.59
2019-03-03T16:24:09.321Z,99622.41
2019-03-03T16:26:38.511Z,99618.74
2019-03-03T16:29:07.610Z,99606.16
2019-03-03T16:31:36.901Z,99606.06
2019-03-03T16:34:06.789Z,99608.44
2019-03-03T16:36:36.720Z,99606.98
2019-03-03T16:39:07.462Z,99594.88
2019-03-03T16:41:37.146Z,99602.35
2019-03-03T16:44:06.311Z,99600.08
2019-03-03T16:46:35.578Z,99602.72
2019-03-03T16:49:04.722Z,99601.09
2019-03-03T16:51:35.032Z,99612.80
2019-03-03T16:54:04.146Z,99601.31
2019-03-03T16:56:33.322Z,99603.78
2019-03-03T16:59:02.887Z,99596.08
2019-03-03T17:01:32.117Z,99598.08
2019-03-03T17:04:01.389Z,99588.55
2019-03-03T17:06:30.506Z,99607.03
2019-03-03T17:08:59.597Z,99610.79
2019-03-03T17:11:28.878Z,99618.40
2019-03-03T17:13:58.095Z,99611.95
2019-03-03T17:16:27.491Z,99604.77
2019-03-03T17:18:56.593Z,99606.57
2019-03-03T17:21:25.662Z,99620.91
2019-03-03T17:23:54.835Z,99618.83
2019-03-03T17:26:24.098Z,99615.02
2019-03-03T17:28:53.192Z,99621.84
2019-03-03T17:31:27.638Z,99618.97
2019-03-03T17:33:56.739Z,99623.01
2019-03-03T17:36:25.774Z,99612.80
2019-03-03T17:38:55.225Z,99618.22
2019-03-03T17:41:24.304Z,99608.67
2019-03-03T17:43:53.406Z,99602.66
2019-03-03T17:46:22.768Z,99594.59
2019-03-03T17:48:51.999Z,99594.73
2019-03-03T17:51:21.071Z,99591.66
2019-03-03T17:53:50.405Z,99590.88
2019-03-03T17:56:19.493Z,99578.72
2019-03-03T17:58:48.924Z,99574.31
2019-03-03T18:01:18.038Z,99565.95
2019-03-03T18:03:47.304Z,99573.14
2019-03-03T18:06:16.728Z,99551.19
2019-03-03T18:08:45.790Z,99553.64
2019-03-03T18:11:15.154Z,99549.56
2019-03-03T18:13:44.238Z,99541.85
2019-03-03T18:16:13.450Z,99536.57
2019-03-03T18:18:42.581Z,99530.36
2019-03-03T18:21:11.865Z,99528.16
2019-03-03T18:23:41.090Z,99514.80
2019-03-03T18:26:10.307Z,99514.61
2019-03-03T18:28:39.509Z,99521.16
2019-03-03T18:31:08.919Z,99506.44
2019-03-03T18:33:37.983Z,99510.86
2019-03-03T18:36:07.133Z,99499.17
2019-03-03T18:38:36.437Z,99499.75
2019-03-03T18:41:05.919Z,99499.00
2019-03-03T18:43:35.605Z,99500.51
2019-03-03T18:46:05.849Z,99502.45
2019-03-03T18:48:36.325Z,99498.87
2019-03-03T18:51:06.433Z,99499.58
2019-03-03T18:53:35.660Z,99505.61
2019-03-03T18:56:04.996Z,99507.36
2019-03-03T18:58:34.159Z,99498.52
2019-03-03T19:01:05.030Z,99501.57
2019-03-03T19:03:35.317Z,99506.84
2019-03-03T19:06:05.135Z,99497.34
2019-03-03T19:08:34.837Z,99502.45
2019-03-03T19:11:04.424Z,99496.70
2019-03-03T19:13:35.607Z,99490.45
2019-03-03T19:16:06.331Z,99484.66
2019-03-03T19:18:37.162Z,99481.78
2019-03-03T19:21:06.405Z,99480.16
2019-03-03T19:23:36.208Z,99470.09
2019-03-03T19:26:05.619Z,99478.03
2019-03-03T19:28:34.923Z,99468.73
2019-03-03T19:31:05.668Z,99461.59
2019-03-03T19:33:39.838Z,99458.94
2019-03-03T19:36:09.006Z,99437.22
2019-03-03T19:38:38.276Z,99442.36
2019-03-03T19:41:07.368Z,99440.94
2019-03-03T19:43:38.109Z,99443.23
2019-03-03T19:46:07.817Z,99445.36
2019-03-03T19:48:37.004Z,99437.84
2019-03-03T19:51:06.653Z,99441.34
2019-03-03T19:53:35.820Z,99436.23
2019-03-03T19:56:05.122Z,99436.38
2019-03-03T19:58:34.330Z,99441.81
2019-03-03T20:01:06.156Z,99432.62
2019-03-03T20:03:35.865Z,99437.33
2019-03-03T20:06:04.990Z,99430.24
2019-03-03T20:08:34.393Z,99426.75
2019-03-03T20:11:03.843Z,99412.10
2019-03-03T20:13:33.551Z,99417.25
2019-03-03T20:16:02.664Z,99423.86
2019-03-03T20:18:32.409Z,99408.34
2019-03-03T20:21:01.736Z,99412.50
2019-03-03T20:23:31.072Z,99417.76
2019-03-03T20:26:01.237Z,99411.31
2019-03-03T20:28:30.623Z,99409.22
2019-03-03T20:30:59.953Z,99402.88
2019-03-03T20:33:29.251Z,99397.92
2019-03-03T20:35:58.591Z,99387.47
2019-03-03T20:38:27.860Z,99404.73
2019-03-03T20:40:57.742Z,99403.07
2019-03-03T20:43:26.973Z,99401.97
2019-03-03T20:45:57.749Z,99390.59
2019-03-03T20:48:27.280Z,99393.81
2019-03-03T20:50:56.518Z,99389.73
2019-03-03T20:53:25.896Z,99383.83
2019-03-03T20:55:55.110Z,99379.00
2019-03-03T20:58:24.510Z,99364.11
2019-03-03T21:00:55.539Z,99360.63
2019-03-03T21:03:24.772Z,99356.82
2019-03-03T21:05:54.093Z,99350.20
2019-03-03T21:08:23.854Z,99349.53
2019-03-03T21:10:53.307Z,99337.69
2019-03-03T21:13:22.841Z,99334.00
2019-03-03T21:15:52.538Z,99322.27
2019-03-03T21:18:21.918Z,99321.58
2019-03-03T21:20:51.880Z,99325.23
2019-03-03T21:23:21.199Z,99316.09
2019-03-03T21:25:50.365Z,99303.94
2019-03-03T21:28:21.419Z,99298.17
2019-03-03T21:30:50.689Z,99298.99
2019-03-03T21:33:20.374Z,99289.42
2019-03-03T21:35:50.040Z,99286.90
2019-03-03T21:38:19.721Z,99284.80
2019-03-03T21:40:48.756Z,99292.67
2019-03-03T21:43:17.931Z,99291.25
2019-03-03T21:45:47.363Z,99291.53
2019-03-03T21:48:16.479Z,99283.21
2019-03-03T21:50:45.855Z,99267.16
2019-03-03T21:53:15.490Z,99266.86
2019-03-03T21:55:45.371Z,99243.77
2019-03-03T21:58:14.849Z,99237.84
2019-03-03T22:00:44.918Z,99224.20
2019-03-03T22:03:15.743Z,99227.31
2019-03-03T22:05:45.109Z,99214.55
2019-03-03T22:08:14.239Z,99216.27
2019-03-03T22:10:43.335Z,99214.52
2019-03-03T22:13:13.682Z,99215.48
2019-03-03T22:15:42.809Z,99218.13
2019-03-03T22:18:11.898Z,99221.23
2019-03-03T22:20:41.074Z,99216.89
2019-03-03T22:23:10.182Z,99217.92
2019-03-03T22:25:41.321Z,99206.60
2019-03-03T22:28:11.273Z,99205.95
2019-03-03T22:30:40.719Z,99195.08
2019-03-03T22:33:09.995Z,99185.58
2019-03-03T22:35:39.323Z,99179.85
2019-03-03T22:38:09.353Z,99162.77
2019-03-03T22:40:38.628Z,99156.17
2019-03-03T22:43:07.927Z,99153.25
2019-03-03T22:45:37.057Z,99156.31
2019-03-03T22:48:06.297Z,99146.50
2019-03-03T22:50:35.730Z,99138.91
2019-03-03T22:53:04.920Z,99135.31
2019-03-03T22:55:40.490Z,99130.73
2019-03-03T22:58:10.211Z,99117.53
2019-03-03T23:01:07.971Z,99116.50
2019-03-03T23:04:08.355Z,99110.64
2019-03-03T23:06:55.045Z,99095.06
2019-03-03T23:10:08.613Z,99088.84
2019-03-03T23:13:01.952Z,99092.70
2019-03-03T23:15:55.229Z,99085.12
2019-03-03T23:18:54.665Z,99083.48
2019-03-03T23:21:32.094Z,99089.96
2019-03-03T23:24:36.017Z,99092.93
2019-03-03T23:27:05.652Z,99084.46
2019-03-03T23:29:34.675Z,99079.66
2019-03-03T23:32:03.984Z,99077.94
2019-03-03T23:34:33.212Z,99073.45
2019-03-03T23:37:02.642Z,99068.69
2019-03-03T23:39:32.265Z,99062.63
2019-03-03T23:42:01.659Z,99058.19
2019-03-03T23:44:30.812Z,99054.58
2019-03-03T23:47:00.151Z,99055.59
2019-03-03T23:49:29.190Z,99059.02
2019-03-03T23:51:58.390Z,99049.21
2019-03-03T23:54:27.478Z,99046.99
2019-03-03T23:56:56.724Z,99046.48
2019-03-03T23:59:26.159Z,99046.19
